.
WxDataArchive / Data Records for 2011-12-29
2011-12-28 December 2011 2011-12-30

Data Records for Thursday, 29 December 2011

Time	Temp	Chill	HIndex	Humid	Dewpt	 Wind 	HiWind	WindDir	Rain 	Barom 
-----	----	-----	------	-----	-----	------	------	-------	-----	----- 
00:00	28.4	28.4	28.4	83	23.9	0	1	270	0.00	29.967 
00:05	28.4	28.4	28.4	83	23.9	0	0	---	0.00	29.967 
00:10	28.4	28.4	28.4	83	23.9	0	1	270	0.00	29.967 
00:15	28.5	28.5	28.5	83	24.0	0	0	---	0.00	29.965 
00:20	28.4	28.4	28.4	83	23.9	0	0	---	0.00	29.965 
00:25	28.4	28.4	28.4	83	23.9	0	0	---	0.00	29.965 
00:30	28.4	28.4	28.4	83	23.9	0	1	270	0.00	29.962 
00:35	28.4	28.4	28.4	84	24.2	0	0	---	0.00	29.962 
00:40	28.4	28.4	28.4	84	24.2	0	0	---	0.00	29.962 
00:45	28.4	28.4	28.4	84	24.2	0	1	270	0.00	29.950 
00:50	28.4	28.4	28.4	84	24.2	0	0	---	0.00	29.950 
00:55	28.4	28.4	28.4	84	24.2	0	1	270	0.00	29.950 
01:00	28.4	28.4	28.4	84	24.2	0	1	270	0.00	29.940 
01:05	28.5	28.5	28.5	84	24.3	0	2	270	0.00	29.940 
01:10	28.7	28.7	28.7	84	24.5	0	1	270	0.00	29.940 
01:15	28.7	28.7	28.7	84	24.5	0	1	270	0.00	29.930 
01:20	28.8	28.8	28.8	84	24.6	0	1	270	0.00	29.930 
01:25	28.8	28.8	28.8	84	24.6	0	1	270	0.00	29.930 
01:30	28.8	28.8	28.8	84	24.6	0	2	270	0.00	29.926 
01:35	29.0	29.0	29.0	84	24.8	0	1	270	0.00	29.926 
01:40	29.1	29.1	29.1	84	24.9	0	1	270	0.00	29.926 
01:45	29.1	29.1	29.1	83	24.6	0	1	270	0.00	29.921 
01:50	29.3	29.3	29.3	83	24.8	0	0	---	0.00	29.921 
01:55	29.4	29.4	29.4	83	24.9	0	1	270	0.00	29.921 
02:00	29.4	29.4	29.4	83	24.9	0	2	270	0.00	29.918 
02:05	29.5	29.5	29.5	83	25.0	0	3	112	0.00	29.918 
02:10	29.7	29.7	29.7	83	25.2	0	1	112	0.00	29.918 
02:15	29.8	29.8	29.8	82	25.0	0	1	112	0.00	29.915 
02:20	29.8	29.8	29.8	82	25.0	0	2	112	0.00	29.915 
02:25	30.0	30.0	30.0	82	25.2	0	2	112	0.00	29.915 
02:30	30.0	30.0	30.0	82	25.2	0	1	112	0.00	29.915 
02:35	30.0	30.0	30.0	82	25.2	0	3	112	0.00	29.915 
02:40	30.0	30.0	30.0	82	25.2	0	1	112	0.00	29.915 
02:45	30.1	30.1	30.1	82	25.3	0	1	112	0.00	29.913 
02:50	30.1	30.1	30.1	82	25.3	0	3	112	0.00	29.913 
02:55	30.1	30.1	30.1	82	25.3	0	2	112	0.00	29.913 
03:00	30.1	30.1	30.1	82	25.3	0	3	112	0.00	29.901 
03:05	30.3	30.3	30.3	82	25.5	0	2	112	0.00	29.901 
03:10	30.3	30.3	30.3	83	25.8	0	2	112	0.00	29.901 
03:15	30.3	30.3	30.3	83	25.8	0	2	112	0.00	29.898 
03:20	30.3	30.3	30.3	83	25.8	0	1	112	0.00	29.898 
03:25	30.3	30.3	30.3	83	25.8	0	1	112	0.00	29.898 
03:30	30.4	30.4	30.4	83	25.9	0	2	112	0.00	29.890 
03:35	30.4	30.4	30.4	83	25.9	0	2	90	0.00	29.890 
03:40	30.6	30.6	30.6	83	26.1	0	1	90	0.00	29.890 
03:45	30.7	30.7	30.7	83	26.2	0	1	90	0.00	29.881 
03:50	30.7	30.7	30.7	83	26.2	0	2	90	0.00	29.881 
03:55	30.9	30.9	30.9	83	26.4	0	2	90	0.00	29.881 
04:00	31.0	31.0	31.0	83	26.5	1	4	90	0.00	29.866 
04:05	31.2	31.2	31.2	83	26.6	0	2	90	0.00	29.866 
04:10	31.2	31.2	31.2	83	26.6	1	3	90	0.00	29.866 
04:15	31.3	31.3	31.3	83	26.7	1	2	90	0.00	29.858 
04:20	31.5	31.5	31.5	83	26.9	1	3	90	0.00	29.858 
04:25	31.5	31.5	31.5	83	26.9	0	3	135	0.00	29.858 
04:30	31.5	31.5	31.5	83	26.9	0	3	112	0.00	29.850 
04:35	31.5	31.5	31.5	83	26.9	0	3	112	0.00	29.850 
04:40	31.5	31.5	31.5	83	26.9	1	3	112	0.00	29.850 
04:45	31.5	31.5	31.5	83	26.9	1	3	112	0.00	29.837 
04:50	31.6	31.6	31.6	83	27.0	1	4	135	0.00	29.837 
04:55	31.6	31.6	31.6	83	27.0	1	2	112	0.00	29.837 
05:00	31.8	31.8	31.8	83	27.2	0	3	112	0.00	29.833 
05:05	31.8	31.8	31.8	83	27.2	1	3	112	0.00	29.833 
05:10	31.8	31.8	31.8	83	27.2	1	3	112	0.00	29.833 
05:15	31.8	31.8	31.8	83	27.2	0	1	112	0.00	29.827 
05:20	31.9	31.9	31.9	83	27.3	0	3	112	0.00	29.827 
05:25	31.9	31.9	31.9	83	27.3	1	3	112	0.00	29.827 
05:30	31.9	31.9	31.9	83	27.3	0	3	112	0.00	29.823 
05:35	31.9	31.9	31.9	83	27.3	0	3	112	0.00	29.823 
05:40	31.9	31.9	31.9	83	27.3	0	1	112	0.00	29.823 
05:45	31.9	31.9	31.9	84	27.6	1	3	112	0.00	29.821 
05:50	32.1	32.1	32.1	84	27.8	0	2	112	0.00	29.821 
05:55	32.2	32.2	32.2	84	27.9	1	4	112	0.00	29.821 
06:00	32.2	32.2	32.2	84	27.9	0	2	112	0.00	29.816 
06:05	32.4	32.4	32.4	84	28.1	0	2	112	0.00	29.816 
06:10	32.4	32.4	32.4	84	28.1	0	2	112	0.00	29.816 
06:15	32.5	32.5	32.5	84	28.2	1	4	112	0.00	29.806 
06:20	32.5	32.5	32.5	84	28.2	1	3	135	0.00	29.806 
06:25	32.5	32.5	32.5	84	28.2	1	3	0	0.00	29.806 
06:30	32.7	32.7	32.7	84	28.4	0	3	90	0.00	29.802 
06:35	32.7	32.7	32.7	84	28.4	1	3	90	0.00	29.802 
06:40	32.8	32.8	32.8	84	28.5	0	2	90	0.00	29.802 
06:45	32.8	32.8	32.8	84	28.5	0	2	90	0.00	29.799 
06:50	32.8	32.8	32.8	84	28.5	1	4	112	0.00	29.799 
06:55	32.9	32.9	32.9	84	28.6	0	2	112	0.00	29.799 
07:00	32.9	32.9	32.9	84	28.6	0	2	112	0.00	29.796 
07:05	33.1	33.1	33.1	84	28.8	0	2	112	0.00	29.796 
07:10	33.1	33.1	33.1	84	28.8	1	3	68	0.00	29.796 
07:15	33.2	33.2	33.2	84	28.9	0	3	248	0.00	29.799 
07:20	33.4	33.4	33.4	84	29.1	0	1	248	0.00	29.799 
07:25	33.4	33.4	33.4	84	29.1	0	2	248	0.00	29.799 
07:30	33.5	33.5	33.5	84	29.2	0	2	248	0.00	29.791 
07:35	33.5	33.5	33.5	84	29.2	1	3	248	0.00	29.791 
07:40	33.7	33.7	33.7	84	29.4	0	3	248	0.00	29.791 
07:45	33.8	33.8	33.8	84	29.5	1	3	68	0.00	29.795 
07:50	33.8	33.8	33.8	84	29.5	1	6	270	0.00	29.795 
07:55	34.0	34.0	34.0	84	29.7	1	3	248	0.00	29.795 
08:00	34.0	34.0	34.0	84	29.7	0	2	248	0.00	29.791 
08:05	34.0	34.0	34.0	84	29.7	1	2	248	0.00	29.791 
08:10	34.0	34.0	34.0	84	29.7	0	2	68	0.00	29.791 
08:15	34.0	34.0	34.0	84	29.7	0	2	338	0.00	29.789 
08:20	34.1	34.1	34.1	84	29.8	1	3	338	0.00	29.789 
08:25	34.1	34.1	34.1	84	29.8	0	2	225	0.00	29.789 
08:30	34.3	34.3	34.3	84	30.0	0	4	225	0.00	29.785 
08:35	34.3	34.3	34.3	84	30.0	0	2	270	0.00	29.785 
08:40	34.3	34.3	34.3	84	30.0	0	3	45	0.00	29.785 
08:45	34.3	34.3	34.3	85	30.3	0	2	45	0.00	29.773 
08:50	34.3	34.3	34.3	85	30.3	0	2	45	0.00	29.773 
08:55	34.4	34.4	34.4	86	30.7	0	2	45	0.00	29.773 
09:00	34.4	34.4	34.4	86	30.7	0	2	338	0.00	29.775 
09:05	34.4	34.4	34.4	86	30.7	0	2	315	0.00	29.775 
09:10	34.4	34.4	34.4	87	30.9	0	2	315	0.00	29.775 
09:15	34.4	34.4	34.4	87	30.9	0	2	315	0.00	29.774 
09:20	34.4	34.4	34.4	87	30.9	1	3	315	0.00	29.774 
09:25	34.6	34.6	34.6	87	31.1	1	3	45	0.00	29.774 
09:30	34.6	34.6	34.6	88	31.4	1	3	112	0.00	29.767 
09:35	34.7	34.7	34.7	88	31.5	1	4	112	0.00	29.767 
09:40	34.9	34.9	34.9	88	31.7	1	4	112	0.00	29.767 
09:45	34.9	34.9	34.9	88	31.7	1	2	112	0.00	29.771 
09:50	34.9	34.9	34.9	88	31.7	1	3	248	0.00	29.771 
09:55	35.0	35.0	35.0	88	31.8	1	3	68	0.00	29.771 
10:00	35.0	35.0	35.0	88	31.8	1	3	90	0.00	29.770 
10:05	35.2	35.2	35.2	88	32.0	3	6	90	0.00	29.770 
10:10	35.3	35.3	35.3	87	31.8	2	5	112	0.00	29.770 
10:15	35.5	35.5	35.5	87	32.0	2	4	112	0.00	29.742 
10:20	35.6	35.6	35.6	87	32.1	1	5	112	0.00	29.742 
10:25	36.0	36.0	36.0	87	32.5	2	6	68	0.00	29.742 
10:30	36.5	36.5	36.5	86	32.7	3	7	112	0.00	29.736 
10:35	36.6	36.6	36.6	84	32.2	2	4	112	0.00	29.736 
10:40	36.5	36.5	36.5	84	32.1	2	5	90	0.00	29.736 
10:45	36.5	36.5	36.5	84	32.1	1	5	90	0.00	29.721 
10:50	36.5	36.5	36.5	83	31.8	2	7	90	0.00	29.721 
10:55	36.3	36.3	36.3	83	31.6	1	6	90	0.00	29.721 
11:00	36.5	36.5	36.5	83	31.8	2	9	112	0.00	29.705 
11:05	36.6	36.6	36.6	83	31.9	2	6	112	0.00	29.705 
11:10	37.0	37.0	37.0	83	32.3	2	5	90	0.00	29.705 
11:15	37.5	37.5	37.5	82	32.5	2	5	90	0.00	29.702 
11:20	37.6	37.6	37.6	81	32.3	2	5	68	0.01	29.702 
11:25	37.8	37.8	37.8	81	32.5	2	5	68	0.00	29.702 
11:30	37.9	37.9	37.9	81	32.6	1	5	22	0.00	29.689 
11:35	38.0	38.0	38.0	81	32.7	2	8	45	0.00	29.689 
11:40	38.3	38.3	38.3	81	33.0	1	4	90	0.00	29.689 
11:45	38.5	38.5	38.5	79	32.6	3	11	68	0.00	29.672 
11:50	38.5	38.5	38.5	79	32.6	1	4	270	0.00	29.672 
11:55	38.6	38.6	38.6	79	32.7	2	5	248	0.00	29.672 
12:00	38.9	38.9	38.9	78	32.6	3	10	90	0.00	29.641 
12:05	39.1	39.1	39.1	77	32.5	2	6	90	0.00	29.641 
12:10	39.2	39.2	39.2	78	32.9	1	4	90	0.00	29.641 
12:15	39.2	39.2	39.2	77	32.6	2	5	90	0.01	29.645 
12:20	39.2	39.2	39.2	77	32.6	1	4	248	0.00	29.645 
12:25	39.5	39.5	39.5	77	32.9	2	7	248	0.00	29.645 
12:30	40.1	40.1	40.1	77	33.5	2	6	248	0.00	29.646 
12:35	40.6	40.6	40.6	76	33.6	3	7	248	0.00	29.646 
12:40	41.1	41.1	41.1	74	33.5	2	7	248	0.00	29.646 
12:45	41.1	41.1	41.1	74	33.5	3	10	248	0.00	29.639 
12:50	41.1	41.1	41.1	74	33.5	2	7	135	0.00	29.639 
12:55	41.1	41.1	41.1	73	33.1	2	6	270	0.00	29.639 
13:00	40.9	40.9	40.9	74	33.3	2	8	248	0.00	29.608 
13:05	40.8	40.8	40.8	74	33.2	2	6	112	0.00	29.608 
13:10	40.6	40.6	40.6	75	33.3	2	7	248	0.00	29.608 
13:15	40.6	40.6	40.6	74	33.0	2	6	248	0.00	29.603 
13:20	40.6	40.6	40.6	74	33.0	2	6	248	0.00	29.603 
13:25	40.8	40.8	40.8	75	33.5	1	5	292	0.00	29.603 
13:30	41.1	41.1	41.1	75	33.8	2	6	248	0.01	29.601 
13:35	41.2	41.2	41.2	74	33.6	3	9	270	0.00	29.601 
13:40	41.2	41.2	41.2	74	33.6	2	5	248	0.00	29.601 
13:45	41.2	41.2	41.2	74	33.6	1	4	248	0.00	29.598 
13:50	41.5	41.5	41.5	74	33.8	2	7	248	0.00	29.598 
13:55	41.6	41.6	41.6	74	33.9	2	8	248	0.00	29.598 
14:00	41.8	41.8	41.8	73	33.8	3	9	270	0.00	29.593 
14:05	42.1	42.1	42.1	73	34.1	2	5	248	0.00	29.593 
14:10	42.5	42.5	42.5	73	34.5	1	5	248	0.00	29.593 
14:15	43.1	43.1	43.1	73	35.0	1	5	292	0.00	29.587 
14:20	43.5	43.5	43.5	71	34.7	2	5	248	0.00	29.587 
14:25	43.8	43.8	43.8	70	34.7	1	4	248	0.00	29.587 
14:30	43.9	43.9	43.9	69	34.4	3	9	248	0.00	29.582 
14:35	44.2	44.2	44.2	68	34.3	3	8	248	0.00	29.582 
14:40	44.5	44.5	44.5	68	34.6	2	6	248	0.00	29.582 
14:45	44.6	44.6	44.6	67	34.3	3	6	248	0.00	29.584 
14:50	44.6	44.6	44.6	67	34.3	3	10	248	0.00	29.584 
14:55	44.8	44.8	44.8	66	34.1	2	10	225	0.00	29.584 
15:00	45.1	45.1	45.1	66	34.4	2	7	248	0.00	29.588 
15:05	45.1	43.2	45.1	65	34.0	4	12	270	0.00	29.588 
15:10	45.2	45.2	45.2	65	34.1	3	7	248	0.00	29.588 
15:15	45.2	43.3	45.2	65	34.1	4	10	248	0.00	29.586 
15:20	45.4	43.6	45.4	65	34.3	4	9	248	0.00	29.586 
15:25	45.5	45.5	45.5	65	34.4	3	9	248	0.00	29.586 
15:30	45.7	45.7	45.7	65	34.6	2	7	270	0.00	29.592 
15:35	45.7	45.7	45.7	65	34.6	3	9	248	0.00	29.592 
15:40	45.8	45.8	45.8	65	34.7	3	6	248	0.00	29.592 
15:45	45.8	45.8	45.8	66	35.1	3	10	248	0.00	29.598 
15:50	46.0	46.0	46.0	66	35.3	2	5	225	0.00	29.598 
15:55	45.8	45.8	45.8	67	35.5	2	7	248	0.00	29.598 
16:00	45.8	45.8	45.8	67	35.5	2	5	248	0.00	29.590 
16:05	45.8	45.8	45.8	67	35.5	3	7	248	0.00	29.590 
16:10	45.8	45.8	45.8	68	35.8	1	4	248	0.00	29.590 
16:15	45.8	45.8	45.8	67	35.5	2	6	248	0.00	29.597 
16:20	45.8	45.8	45.8	67	35.5	2	6	225	0.00	29.597 
16:25	46.0	46.0	46.0	67	35.7	3	11	248	0.00	29.597 
16:30	46.0	44.2	46.0	66	35.3	4	10	248	0.00	29.601 
16:35	46.1	46.1	46.1	66	35.4	3	7	248	0.00	29.601 
16:40	46.0	46.0	46.0	66	35.3	3	9	270	0.00	29.601 
16:45	45.8	45.8	45.8	67	35.5	3	10	248	0.00	29.605 
16:50	45.7	45.7	45.7	67	35.4	3	10	248	0.00	29.605 
16:55	45.5	45.5	45.5	68	35.6	2	5	248	0.00	29.605 
17:00	45.5	45.5	45.5	69	35.9	2	7	248	0.00	29.612 
17:05	45.5	45.5	45.5	69	35.9	2	7	270	0.00	29.612 
17:10	45.5	45.5	45.5	69	35.9	1	4	270	0.00	29.612 
17:15	45.4	45.4	45.4	69	35.8	1	4	270	0.00	29.615 
17:20	45.4	45.4	45.4	69	35.8	1	6	270	0.00	29.615 
17:25	45.5	45.5	45.5	69	35.9	1	5	248	0.00	29.615 
17:30	45.5	45.5	45.5	70	36.3	1	4	248	0.00	29.616 
17:35	45.5	45.5	45.5	70	36.3	2	6	248	0.00	29.616 
17:40	45.5	45.5	45.5	70	36.3	1	4	248	0.00	29.616 
17:45	45.4	45.4	45.4	70	36.2	1	3	248	0.00	29.618 
17:50	45.4	45.4	45.4	71	36.6	1	3	248	0.00	29.618 
17:55	45.4	45.4	45.4	71	36.6	1	3	248	0.00	29.618 
18:00	45.4	45.4	45.4	71	36.6	0	3	248	0.00	29.625 
18:05	45.4	45.4	45.4	72	36.9	1	5	248	0.00	29.625 
18:10	45.2	45.2	45.2	72	36.7	1	2	248	0.00	29.625 
18:15	45.2	45.2	45.2	72	36.7	0	3	248	0.00	29.631 
18:20	45.2	45.2	45.2	72	36.7	1	4	248	0.00	29.631 
18:25	45.2	45.2	45.2	72	36.7	1	4	248	0.00	29.631 
18:30	45.4	45.4	45.4	72	36.9	1	4	248	0.00	29.637 
18:35	45.4	45.4	45.4	72	36.9	1	5	248	0.00	29.637 
18:40	45.4	45.4	45.4	72	36.9	1	3	248	0.00	29.637 
18:45	45.5	45.5	45.5	72	37.0	1	4	248	0.00	29.647 
18:50	45.7	45.7	45.7	72	37.2	1	5	248	0.00	29.647 
18:55	45.7	45.7	45.7	72	37.2	2	6	225	0.00	29.647 
19:00	45.8	45.8	45.8	72	37.3	2	5	248	0.00	29.653 
19:05	45.7	45.7	45.7	72	37.2	2	5	248	0.00	29.653 
19:10	45.7	45.7	45.7	72	37.2	1	4	270	0.00	29.653 
19:15	45.7	45.7	45.7	73	37.5	1	5	248	0.00	29.660 
19:20	45.5	45.5	45.5	73	37.4	1	6	248	0.00	29.660 
19:25	45.5	45.5	45.5	73	37.4	1	4	270	0.00	29.660 
19:30	45.4	45.4	45.4	73	37.3	1	3	270	0.00	29.675 
19:35	45.4	45.4	45.4	73	37.3	1	5	248	0.00	29.675 
19:40	45.4	45.4	45.4	73	37.3	1	3	248	0.00	29.675 
19:45	45.2	45.2	45.2	74	37.4	2	4	248	0.00	29.677 
19:50	44.9	44.9	44.9	74	37.1	1	5	248	0.00	29.677 
19:55	44.8	44.8	44.8	75	37.4	1	4	248	0.00	29.677 
20:00	44.5	44.5	44.5	75	37.1	2	5	248	0.00	29.681 
20:05	44.3	44.3	44.3	76	37.2	1	3	248	0.00	29.681 
20:10	44.2	44.2	44.2	76	37.1	2	6	248	0.00	29.681 
20:15	44.1	44.1	44.1	77	37.4	1	5	248	0.00	29.688 
20:20	43.9	43.9	43.9	77	37.2	2	6	270	0.00	29.688 
20:25	43.8	43.8	43.8	77	37.1	1	4	270	0.00	29.688 
20:30	43.6	43.6	43.6	78	37.2	2	4	248	0.00	29.689 
20:35	43.6	43.6	43.6	78	37.2	2	4	248	0.00	29.689 
20:40	43.5	43.5	43.5	78	37.1	1	4	270	0.00	29.689 
20:45	43.2	43.2	43.2	79	37.1	1	3	248	0.00	29.691 
20:50	43.1	43.1	43.1	79	37.0	1	4	248	0.00	29.691 
20:55	42.9	42.9	42.9	79	36.8	1	3	248	0.00	29.691 
21:00	42.8	42.8	42.8	80	37.1	1	4	248	0.00	29.695 
21:05	42.6	42.6	42.6	80	36.9	1	4	270	0.00	29.695 
21:10	42.5	42.5	42.5	81	37.1	0	3	270	0.00	29.695 
21:15	42.3	42.3	42.3	81	36.9	0	2	270	0.00	29.697 
21:20	42.1	42.1	42.1	81	36.7	1	3	270	0.00	29.697 
21:25	42.1	42.1	42.1	82	37.0	0	2	270	0.00	29.697 
21:30	41.9	41.9	41.9	82	36.8	1	3	248	0.00	29.698 
21:35	41.8	41.8	41.8	82	36.7	0	3	248	0.00	29.698 
21:40	41.8	41.8	41.8	83	37.0	1	4	248	0.00	29.698 
21:45	41.6	41.6	41.6	83	36.8	1	3	248	0.00	29.707 
21:50	41.5	41.5	41.5	83	36.7	0	1	248	0.00	29.707 
21:55	41.2	41.2	41.2	83	36.4	0	0	---	0.00	29.707 
22:00	40.9	40.9	40.9	82	35.8	0	1	248	0.00	29.714 
22:05	40.5	40.5	40.5	83	35.8	0	0	---	0.00	29.714 
22:10	40.1	40.1	40.1	83	35.4	0	1	248	0.00	29.714 
22:15	39.8	39.8	39.8	84	35.4	0	0	---	0.00	29.716 
22:20	39.6	39.6	39.6	84	35.2	0	1	248	0.00	29.716 
22:25	39.3	39.3	39.3	85	35.2	0	1	248	0.00	29.716 
22:30	39.3	39.3	39.3	85	35.2	0	2	248	0.00	29.724 
22:35	39.3	39.3	39.3	86	35.5	0	1	248	0.00	29.724 
22:40	39.3	39.3	39.3	86	35.5	0	2	248	0.00	29.724 
22:45	39.5	39.5	39.5	86	35.7	0	2	248	0.00	29.731 
22:50	39.5	39.5	39.5	87	36.0	1	4	248	0.00	29.731 
22:55	39.6	39.6	39.6	87	36.1	0	3	248	0.00	29.731 
23:00	39.6	39.6	39.6	86	35.8	0	1	248	0.00	29.739 
23:05	39.6	39.6	39.6	86	35.8	0	2	248	0.00	29.739 
23:10	39.6	39.6	39.6	86	35.8	0	2	248	0.00	29.739 
23:15	39.8	39.8	39.8	87	36.3	1	3	248	0.00	29.740 
23:20	39.8	39.8	39.8	86	36.0	0	2	248	0.00	29.740 
23:25	39.8	39.8	39.8	86	36.0	0	2	248	0.00	29.740 
23:30	39.9	39.9	39.9	86	36.1	0	3	248	0.00	29.743 
23:35	39.8	39.8	39.8	86	36.0	0	3	248	0.00	29.743 
23:40	39.8	39.8	39.8	86	36.0	1	4	248	0.00	29.743 
23:45	39.9	39.9	39.9	86	36.1	1	2	248	0.00	29.743 
23:50	39.9	39.9	39.9	86	36.1	0	3	248	0.00	29.743 
23:55	39.8	39.8	39.8	86	36.0	0	2	248	0.00	29.743 

CoCoRaHS
IN-AL-39
A2 Web Hosting
Creative Commons License
GoDaddy
search engine by freefind advanced

loaded 2018-11-13 01:37:22 • last modified 2010-11-18 10:43:29
Privacy PolicyDisclaimer
• wx.awcolley.com is powered by PmWiki v.2002016 •
• all content (unless otherwise noted) © 2018 A W Colley